Time;durP1;ratioP1;P1;durP2;ratioP2;P2;SDS_P1;SDS_P2;PMS_P1;PMS_P2;Temp;Humidity;BMP_temperature;BMP_pressure;BME280_temperature;BME280_humidity;BME280_pressure;Samples;Min_cycle;Max_cycle;Signal;HPM_P1;HPM_P2
2023/04/12 00:01:51;;;;;;;18.13;11.30;;;10.80;99.70;;;;;;5054108;28;20428;-63
2023/04/12 00:04:17;;;;;;;18.52;11.32;;;10.80;99.90;;;;;;5054623;28;20032;-63
2023/04/12 00:06:47;;;;;;;14.77;7.93;;;10.70;99.90;;;;;;5037033;28;20029;-63
2023/04/12 00:09:16;;;;;;;22.02;14.70;;;10.70;99.90;;;;;;5054006;28;20044;-63
2023/04/12 00:11:41;;;;;;;16.88;12.02;;;10.70;99.90;;;;;;5054484;28;20025;-63
2023/04/12 00:14:07;;;;;;;15.50;9.93;;;10.70;99.90;;;;;;5053681;28;20523;-63
2023/04/12 00:16:32;;;;;;;20.48;13.45;;;10.60;99.90;;;;;;5054413;28;20067;-63
2023/04/12 00:19:00;;;;;;;23.98;15.10;;;10.60;99.90;;;;;;5054405;28;20388;-63
2023/04/12 00:21:27;;;;;;;25.08;14.90;;;10.50;99.90;;;;;;5035958;28;20041;-62
2023/04/12 00:23:53;;;;;;;22.75;14.55;;;10.50;99.90;;;;;;5054428;28;20119;-63
2023/04/12 00:26:20;;;;;;;19.85;11.85;;;10.50;99.90;;;;;;5054300;28;20044;-63
2023/04/12 00:28:46;;;;;;;16.33;11.13;;;10.50;99.90;;;;;;5053476;28;20461;-63
2023/04/12 00:31:12;;;;;;;19.25;13.23;;;10.40;99.90;;;;;;5054423;28;20082;-63
2023/04/12 00:33:37;;;;;;;15.93;9.10;;;10.40;99.90;;;;;;5053726;28;20114;-63
2023/04/12 00:36:03;;;;;;;22.83;13.60;;;10.30;99.90;;;;;;5053456;28;20059;-63
2023/04/12 00:38:29;;;;;;;26.05;13.13;;;10.30;99.90;;;;;;5053953;28;20052;-63
2023/04/12 00:40:55;;;;;;;25.90;15.77;;;10.30;99.90;;;;;;5054030;28;20102;-63
2023/04/12 00:43:21;;;;;;;21.83;13.18;;;10.30;99.90;;;;;;5035215;28;20107;-63
2023/04/12 00:45:47;;;;;;;25.08;16.65;;;10.20;99.90;;;;;;5053876;28;20541;-63
2023/04/12 00:48:15;;;;;;;18.13;11.40;;;10.10;99.90;;;;;;5053631;28;20075;-63
2023/04/12 00:50:43;;;;;;;19.80;12.70;;;10.10;99.90;;;;;;5053461;28;20508;-63
2023/04/12 00:53:12;;;;;;;17.40;10.00;;;10.10;99.90;;;;;;5053963;28;20461;-63
2023/04/12 00:55:42;;;;;;;26.35;18.35;;;10.00;99.90;;;;;;5053857;28;20056;-63
2023/04/12 00:58:08;;;;;;;27.40;19.20;;;10.00;99.90;;;;;;5053005;28;20103;-62
2023/04/12 01:00:34;;;;;;;21.45;14.25;;;10.00;99.90;;;;;;5053344;28;20458;-62
2023/04/12 01:03:02;;;;;;;13.98;8.40;;;9.90;99.90;;;;;;5053712;28;20448;-62
2023/04/12 01:05:28;;;;;;;8.02;4.38;;;9.90;99.90;;;;;;5052665;28;20021;-63
2023/04/12 01:08:13;;;;;;;19.35;9.23;;;9.90;99.90;;;;;;5035478;28;20389;-62
2023/04/12 01:10:48;;;;;;;15.25;7.85;;;9.80;99.90;;;;;;5052911;28;20021;-63
2023/04/12 01:13:43;;;;;;;15.20;8.52;;;9.80;99.90;;;;;;5053395;28;20017;-62
2023/04/12 01:16:29;;;;;;;15.85;8.50;;;9.80;99.90;;;;;;5035558;28;20036;-63
2023/04/12 01:19:02;;;;;;;18.02;9.10;;;9.70;99.90;;;;;;5052785;28;20025;-62
2023/04/12 01:21:43;;;;;;;16.02;7.72;;;9.70;99.90;;;;;;5053394;28;20040;-62
2023/04/12 01:24:31;;;;;;;8.13;4.80;;;9.70;99.90;;;;;;5053465;28;20032;-62
2023/04/12 01:26:59;;;;;;;9.73;5.20;;;9.70;99.90;;;;;;5052733;28;20223;-63
2023/04/12 01:29:28;;;;;;;8.43;4.65;;;9.60;99.90;;;;;;5053305;28;20067;-63
2023/04/12 01:31:58;;;;;;;5.80;2.70;;;9.60;99.90;;;;;;5052577;28;20096;-63
2023/04/12 01:34:27;;;;;;;4.28;2.05;;;9.60;99.90;;;;;;5053126;28;20029;-62
2023/04/12 01:36:54;;;;;;;6.18;2.97;;;9.60;99.90;;;;;;5053168;28;20470;-63
2023/04/12 01:39:20;;;;;;;8.75;3.03;;;9.50;99.90;;;;;;5052341;28;20103;-63
2023/04/12 01:41:47;;;;;;;5.60;2.70;;;9.50;99.90;;;;;;5052905;28;20044;-62
2023/04/12 01:44:17;;;;;;;5.72;2.10;;;9.50;99.90;;;;;;5051667;28;20020;-63
2023/04/12 01:46:46;;;;;;;9.18;2.38;;;9.50;99.90;;;;;;5052159;28;20100;-63
2023/04/12 01:49:13;;;;;;;4.10;2.13;;;9.50;99.90;;;;;;5052942;28;20013;-63
2023/04/12 01:51:56;;;;;;;3.28;1.63;;;9.50;99.90;;;;;;5053153;28;20074;-62
2023/04/12 01:54:25;;;;;;;7.90;2.40;;;9.50;99.90;;;;;;5034485;28;20477;-63
2023/04/12 01:56:56;;;;;;;9.10;2.25;;;9.50;99.90;;;;;;5052869;28;20036;-63
2023/04/12 01:59:27;;;;;;;6.25;2.10;;;9.40;99.90;;;;;;5052892;28;20100;-62
2023/04/12 02:01:52;;;;;;;5.28;2.88;;;9.40;99.90;;;;;;5052628;28;20032;-63
2023/04/12 02:04:19;;;;;;;5.60;1.98;;;9.40;99.90;;;;;;5053010;28;20067;-63
2023/04/12 02:06:46;;;;;;;8.63;2.38;;;9.40;99.90;;;;;;5052198;28;20132;-63
2023/04/12 02:09:11;;;;;;;4.97;2.22;;;9.40;99.90;;;;;;5052575;28;20021;-63
2023/04/12 02:11:37;;;;;;;7.43;1.90;;;9.40;99.90;;;;;;5052691;28;20021;-63
2023/04/12 02:14:02;;;;;;;5.30;2.50;;;9.40;99.90;;;;;;5052129;28;20018;-63
2023/04/12 02:16:28;;;;;;;4.32;1.60;;;9.30;99.90;;;;;;5052677;28;20083;-63
2023/04/12 02:18:57;;;;;;;4.55;1.80;;;9.30;99.90;;;;;;5052641;28;20022;-63
2023/04/12 02:21:23;;;;;;;6.88;2.20;;;9.30;99.90;;;;;;5052027;28;20060;-63
2023/04/12 02:23:49;;;;;;;5.03;1.85;;;9.30;99.90;;;;;;5034809;28;20454;-63
2023/04/12 02:26:15;;;;;;;1.98;1.27;;;9.30;99.90;;;;;;5034582;28;20060;-63
2023/04/12 02:28:41;;;;;;;5.60;1.55;;;9.20;99.90;;;;;;5033955;28;20025;-63
2023/04/12 02:31:07;;;;;;;5.25;2.13;;;9.20;99.90;;;;;;5052578;28;20021;-63
2023/04/12 02:33:33;;;;;;;5.75;2.15;;;9.20;99.90;;;;;;5052463;28;20032;-63
2023/04/12 02:36:01;;;;;;;6.80;2.00;;;9.20;99.90;;;;;;5034010;28;20021;-63
2023/04/12 02:38:27;;;;;;;3.47;1.58;;;9.20;99.90;;;;;;5052691;28;20021;-63
2023/04/12 02:40:53;;;;;;;6.18;1.70;;;9.10;99.90;;;;;;5021905;28;20120;-63
2023/04/12 02:43:19;;;;;;;6.22;1.70;;;9.10;99.90;;;;;;5037697;28;20441;-63
2023/04/12 02:45:46;;;;;;;4.18;2.00;;;9.10;99.90;;;;;;5056158;28;20028;-63
2023/04/12 02:48:12;;;;;;;5.85;2.10;;;9.10;99.90;;;;;;5038397;28;20135;-62
2023/04/12 02:50:37;;;;;;;6.75;1.80;;;9.00;99.90;;;;;;5055688;28;20512;-63
2023/04/12 02:53:03;;;;;;;6.45;1.63;;;9.00;99.90;;;;;;5056066;28;20410;-63
2023/04/12 02:55:29;;;;;;;3.28;1.70;;;9.00;99.90;;;;;;5056233;28;20044;-63
2023/04/12 02:57:56;;;;;;;4.93;1.60;;;8.90;99.90;;;;;;5055664;28;20099;-63
2023/04/12 03:00:22;;;;;;;5.47;1.77;;;8.90;99.90;;;;;;5056171;28;20100;-62
2023/04/12 03:02:50;;;;;;;5.20;1.60;;;8.90;99.90;;;;;;5055489;28;20021;-63
2023/04/12 03:05:16;;;;;;;3.65;1.42;;;8.90;99.90;;;;;;5056050;28;20021;-63
2023/04/12 03:07:42;;;;;;;7.35;1.70;;;8.90;99.90;;;;;;5056097;28;20025;-62
2023/04/12 03:10:10;;;;;;;7.32;2.13;;;8.90;99.90;;;;;;5055455;28;20028;-63
2023/04/12 03:12:36;;;;;;;3.92;1.80;;;8.90;99.90;;;;;;5055955;28;20025;-62
2023/04/12 03:15:02;;;;;;;5.65;1.60;;;8.90;99.90;;;;;;5037969;28;20025;-63
2023/04/12 03:17:28;;;;;;;5.03;1.80;;;8.90;99.90;;;;;;5037378;28;20027;-63
2023/04/12 03:19:54;;;;;;;6.13;2.08;;;8.90;99.90;;;;;;5055838;28;20096;-62
2023/04/12 03:22:19;;;;;;;5.72;1.38;;;9.00;99.90;;;;;;5055767;28;20040;-62
2023/04/12 03:24:45;;;;;;;11.55;2.10;;;9.00;99.90;;;;;;5055272;28;20398;-62
2023/04/12 03:27:11;;;;;;;5.40;2.17;;;9.00;99.90;;;;;;5055574;28;20021;-62
2023/04/12 03:29:37;;;;;;;4.65;1.98;;;8.90;99.90;;;;;;5055312;28;20021;-62
2023/04/12 03:32:02;;;;;;;3.00;1.60;;;9.00;99.90;;;;;;5054893;28;20021;-62
2023/04/12 03:34:31;;;;;;;4.13;1.92;;;9.00;99.90;;;;;;5055506;28;20466;-62
2023/04/12 03:36:57;;;;;;;3.35;1.75;;;9.00;99.90;;;;;;5055396;28;20029;-63
2023/04/12 03:39:23;;;;;;;5.07;1.70;;;9.00;99.90;;;;;;5054322;28;20025;-63
2023/04/12 03:41:49;;;;;;;2.30;1.30;;;9.00;99.90;;;;;;5055093;28;20040;-63
2023/04/12 03:44:14;;;;;;;7.57;1.88;;;8.90;99.90;;;;;;5055042;28;20025;-63
2023/04/12 03:46:40;;;;;;;3.35;1.58;;;9.00;99.90;;;;;;5054711;28;20025;-63
2023/04/12 03:49:06;;;;;;;9.05;1.80;;;8.90;99.90;;;;;;5054666;28;20022;-63
2023/04/12 03:51:31;;;;;;;5.93;1.83;;;9.00;99.90;;;;;;5036990;28;20040;-63
2023/04/12 03:53:57;;;;;;;6.93;2.00;;;9.00;99.90;;;;;;5054657;28;20024;-62
2023/04/12 03:56:22;;;;;;;3.92;1.90;;;8.90;99.90;;;;;;5054904;28;20067;-62
2023/04/12 03:58:48;;;;;;;4.93;2.00;;;8.90;99.90;;;;;;5036941;28;20060;-63
2023/04/12 04:01:16;;;;;;;3.75;1.80;;;8.90;99.90;;;;;;5054199;28;20508;-63
2023/04/12 04:03:43;;;;;;;4.47;1.70;;;8.90;99.90;;;;;;5054875;28;20028;-63
2023/04/12 04:06:10;;;;;;;4.65;1.90;;;8.90;99.90;;;;;;5054297;28;20024;-63
2023/04/12 04:08:36;;;;;;;4.88;2.05;;;8.90;99.90;;;;;;5054868;28;20114;-63
2023/04/12 04:11:02;;;;;;;6.30;2.00;;;8.90;99.90;;;;;;5054836;28;20115;-63
2023/04/12 04:13:28;;;;;;;3.50;2.45;;;8.90;99.90;;;;;;5053949;28;20095;-63
2023/04/12 04:16:03;;;;;;;5.90;1.70;;;8.80;99.90;;;;;;5054658;28;20029;-63
2023/04/12 04:18:29;;;;;;;4.97;1.83;;;8.90;99.90;;;;;;5036414;28;20032;-63
2023/04/12 04:20:55;;;;;;;5.60;2.20;;;8.80;99.90;;;;;;5054181;28;20060;-63
2023/04/12 04:23:22;;;;;;;5.20;2.20;;;8.80;99.90;;;;;;5054528;28;20060;-63
2023/04/12 04:25:47;;;;;;;4.20;2.13;;;8.80;99.90;;;;;;5054280;28;20028;-63
2023/04/12 04:28:17;;;;;;;3.55;1.80;;;8.80;99.90;;;;;;5053537;28;20028;-63
2023/04/12 04:30:45;;;;;;;5.20;2.00;;;8.70;99.90;;;;;;5036895;28;20528;-63
2023/04/12 04:33:11;;;;;;;3.03;1.70;;;8.70;99.90;;;;;;5054239;28;20462;-63
2023/04/12 04:35:39;;;;;;;4.60;1.60;;;8.70;99.90;;;;;;5053469;28;20107;-62
2023/04/12 04:38:05;;;;;;;3.95;1.70;;;8.70;99.90;;;;;;5053791;28;20052;-62
2023/04/12 04:40:31;;;;;;;3.88;1.80;;;8.70;99.90;;;;;;5035928;28;20102;-63
2023/04/12 04:42:58;;;;;;;6.78;2.22;;;8.70;99.90;;;;;;5053332;28;20039;-62
2023/04/12 04:45:27;;;;;;;4.32;1.90;;;8.60;99.90;;;;;;5035803;28;20017;-62
2023/04/12 04:47:53;;;;;;;7.38;2.08;;;8.60;99.90;;;;;;5053751;28;20108;-62
2023/04/12 04:50:21;;;;;;;3.10;1.77;;;8.60;99.90;;;;;;5052932;28;20047;-62
2023/04/12 04:52:47;;;;;;;4.63;1.80;;;8.60;99.90;;;;;;5054031;28;20017;-62
2023/04/12 04:55:13;;;;;;;3.95;1.88;;;8.60;99.90;;;;;;5053678;28;20477;-62
2023/04/12 04:57:40;;;;;;;5.65;2.00;;;8.60;99.90;;;;;;5035660;28;20137;-62
2023/04/12 05:00:10;;;;;;;4.60;2.10;;;8.60;99.90;;;;;;5053679;28;20025;-62
2023/04/12 05:02:38;;;;;;;4.55;2.05;;;8.50;99.90;;;;;;5034460;28;20091;-62
2023/04/12 05:05:11;;;;;;;4.63;1.92;;;8.50;99.90;;;;;;5053869;28;20045;-62
2023/04/12 05:07:37;;;;;;;4.72;2.20;;;8.50;99.90;;;;;;5035655;28;20060;-62
2023/04/12 05:10:03;;;;;;;4.65;2.45;;;8.50;99.90;;;;;;5052955;28;20021;-62
2023/04/12 05:12:30;;;;;;;4.78;2.80;;;8.50;99.90;;;;;;5053371;28;20032;-63
2023/04/12 05:14:56;;;;;;;3.15;1.85;;;8.50;99.90;;;;;;5053461;28;20055;-63
2023/04/12 05:17:21;;;;;;;3.65;2.03;;;8.50;99.90;;;;;;5054671;28;20068;-62
2023/04/12 05:19:47;;;;;;;5.43;1.55;;;8.50;99.90;;;;;;5051358;28;20025;-62
2023/04/12 05:22:13;;;;;;;2.75;1.55;;;8.50;99.90;;;;;;5051191;28;20174;-62
2023/04/12 05:24:39;;;;;;;5.30;1.90;;;8.50;99.90;;;;;;5052176;28;20063;-62
2023/04/12 05:27:04;;;;;;;6.63;2.20;;;8.50;99.90;;;;;;5052437;28;20025;-62
2023/04/12 05:29:30;;;;;;;5.13;1.88;;;8.50;99.90;;;;;;5052376;28;20025;-62
2023/04/12 05:31:57;;;;;;;4.15;2.13;;;8.50;99.90;;;;;;5052562;28;20032;-63
2023/04/12 05:34:23;;;;;;;6.35;2.92;;;8.50;99.90;;;;;;5053122;28;20025;-62
2023/04/12 05:36:49;;;;;;;4.32;1.75;;;8.50;99.90;;;;;;5053396;28;20043;-62
2023/04/12 05:39:15;;;;;;;3.20;1.88;;;8.50;99.90;;;;;;5052284;28;20100;-63
2023/04/12 05:41:40;;;;;;;4.13;1.80;;;8.50;99.90;;;;;;5053103;28;20056;-63
2023/04/12 05:44:06;;;;;;;6.35;2.20;;;8.50;99.90;;;;;;5053151;28;20037;-64
2023/04/12 05:46:31;;;;;;;5.75;2.40;;;8.50;99.90;;;;;;5052328;28;20025;-64
2023/04/12 05:48:57;;;;;;;4.82;2.35;;;8.50;99.90;;;;;;5052696;28;20025;-63
2023/04/12 05:51:23;;;;;;;5.43;2.60;;;8.50;99.90;;;;;;5053119;28;20112;-63
2023/04/12 05:53:48;;;;;;;3.80;2.33;;;8.50;99.90;;;;;;5052281;28;20017;-63
2023/04/12 05:56:15;;;;;;;5.47;2.28;;;8.50;99.90;;;;;;5051860;28;20052;-63
2023/04/12 05:58:40;;;;;;;4.57;2.28;;;8.60;99.90;;;;;;5052211;28;20075;-63
2023/04/12 06:01:06;;;;;;;5.35;2.30;;;8.50;99.90;;;;;;5052733;28;20040;-63
2023/04/12 06:03:32;;;;;;;3.72;2.05;;;8.60;99.90;;;;;;5051584;28;20033;-63
2023/04/12 06:05:57;;;;;;;3.58;2.05;;;8.60;99.90;;;;;;5052509;28;20469;-63
2023/04/12 06:08:23;;;;;;;4.45;2.20;;;8.60;99.90;;;;;;5052788;28;20385;-63
2023/04/12 06:10:48;;;;;;;4.68;2.72;;;8.60;99.90;;;;;;5053135;28;20464;-64
2023/04/12 06:13:14;;;;;;;4.68;2.58;;;8.60;99.90;;;;;;5053862;28;20029;-64
2023/04/12 06:15:40;;;;;;;4.78;2.72;;;8.70;99.90;;;;;;5056757;28;20070;-63
2023/04/12 06:18:08;;;;;;;6.57;3.17;;;8.60;99.90;;;;;;5056848;28;20055;-64
2023/04/12 06:20:37;;;;;;;14.73;10.07;;;8.70;99.90;;;;;;5056263;28;20036;-63
2023/04/12 06:23:03;;;;;;;17.83;13.07;;;8.60;99.90;;;;;;5056837;28;20021;-63
2023/04/12 06:25:28;;;;;;;14.02;9.95;;;8.60;99.90;;;;;;5056591;28;20029;-63
2023/04/12 06:27:54;;;;;;;14.75;8.82;;;8.60;99.90;;;;;;5056313;28;20106;-63
2023/04/12 06:30:19;;;;;;;10.57;5.78;;;8.60;99.90;;;;;;5055477;28;20029;-62
2023/04/12 06:32:45;;;;;;;8.52;5.20;;;8.70;99.90;;;;;;5056636;28;20126;-62
2023/04/12 06:35:10;;;;;;;10.02;6.43;;;8.70;99.90;;;;;;5054534;28;20029;-62
2023/04/12 06:37:36;;;;;;;8.38;5.03;;;8.60;99.90;;;;;;5055242;28;20031;-64
2023/04/12 06:40:02;;;;;;;9.55;5.13;;;8.70;99.90;;;;;;5056278;28;20461;-63
2023/04/12 06:42:27;;;;;;;16.10;11.55;;;8.70;99.90;;;;;;5055787;28;20436;-64
2023/04/12 06:44:53;;;;;;;20.88;17.77;;;8.70;99.90;;;;;;5056473;28;20025;-64
2023/04/12 06:47:21;;;;;;;20.23;14.23;;;8.70;99.90;;;;;;5054829;28;20465;-63
2023/04/12 06:49:47;;;;;;;14.93;7.90;;;8.70;99.90;;;;;;5054375;28;20056;-63
2023/04/12 06:52:12;;;;;;;14.40;9.88;;;8.70;99.90;;;;;;5056350;28;20040;-63
2023/04/12 06:54:38;;;;;;;23.38;18.30;;;8.80;99.90;;;;;;5056115;28;20028;-63
2023/04/12 06:57:09;;;;;;;25.75;19.00;;;8.70;99.90;;;;;;5055327;28;20043;-63
2023/04/12 06:59:35;;;;;;;31.30;22.83;;;8.70;99.90;;;;;;5056105;28;20505;-63
2023/04/12 07:02:00;;;;;;;31.55;22.17;;;8.70;99.90;;;;;;5055329;28;20044;-63
2023/04/12 07:04:26;;;;;;;23.42;15.55;;;8.80;99.90;;;;;;5056253;28;20470;-63
2023/04/12 07:06:51;;;;;;;10.48;7.28;;;8.80;99.90;;;;;;5056184;28;20397;-63
2023/04/12 07:09:17;;;;;;;12.95;10.02;;;8.80;99.90;;;;;;5055186;28;20067;-62
2023/04/12 07:11:43;;;;;;;15.23;12.18;;;8.80;99.90;;;;;;5055815;28;20096;-62
2023/04/12 07:14:08;;;;;;;20.40;14.73;;;8.80;99.90;;;;;;5055603;28;20036;-63
2023/04/12 07:16:34;;;;;;;15.68;11.63;;;8.80;99.90;;;;;;5055268;28;20025;-62
2023/04/12 07:18:59;;;;;;;14.60;10.23;;;8.90;99.90;;;;;;5055509;28;20084;-63
2023/04/12 07:21:26;;;;;;;14.40;9.65;;;8.90;99.90;;;;;;5055658;28;20036;-63
2023/04/12 07:23:52;;;;;;;22.52;16.35;;;8.90;99.90;;;;;;5054371;28;20073;-63
2023/04/12 07:26:18;;;;;;;12.05;7.00;;;9.00;99.90;;;;;;5055109;28;20067;-62
2023/04/12 07:28:44;;;;;;;11.40;7.95;;;9.00;99.90;;;;;;5055378;28;20021;-63
2023/04/12 07:31:09;;;;;;;24.63;17.17;;;9.00;99.90;;;;;;5055035;28;20040;-63
2023/04/12 07:33:36;;;;;;;31.13;21.88;;;9.00;99.90;;;;;;5054161;28;20422;-63
2023/04/12 07:36:02;;;;;;;21.27;15.75;;;9.00;99.90;;;;;;5069334;28;20032;-63
2023/04/12 07:38:27;;;;;;;15.13;11.95;;;9.10;99.90;;;;;;5067691;28;20474;-63
2023/04/12 07:40:54;;;;;;;23.50;17.95;;;9.10;99.90;;;;;;5053420;28;20056;-63
2023/04/12 07:43:20;;;;;;;8.65;5.60;;;9.10;99.90;;;;;;5054058;28;20021;-62
2023/04/12 07:45:46;;;;;;;5.30;3.25;;;9.10;99.90;;;;;;5053735;28;20100;-62
2023/04/12 07:48:11;;;;;;;5.35;3.00;;;9.10;99.90;;;;;;5036401;28;20042;-63
2023/04/12 07:50:38;;;;;;;5.28;2.88;;;9.10;99.90;;;;;;5054600;28;20036;-63
2023/04/12 07:53:25;;;;;;;5.68;2.92;;;9.10;99.90;;;;;;5043961;28;20021;-63
2023/04/12 07:55:51;;;;;;;6.60;3.78;;;9.10;99.90;;;;;;5074309;28;20395;-63
2023/04/12 07:58:17;;;;;;;17.80;12.73;;;9.10;99.90;;;;;;5073314;28;20021;-63
2023/04/12 08:00:43;;;;;;;17.60;13.18;;;9.20;99.90;;;;;;5073891;28;20040;-63
2023/04/12 08:03:11;;;;;;;17.33;12.57;;;9.30;99.90;;;;;;5073633;28;20024;-62
2023/04/12 08:05:36;;;;;;;15.45;12.07;;;9.30;99.90;;;;;;5073423;28;20031;-63
2023/04/12 08:08:03;;;;;;;11.05;7.45;;;9.30;99.90;;;;;;5071755;28;20107;-62
2023/04/12 08:10:29;;;;;;;10.02;5.95;;;9.30;99.90;;;;;;5053397;28;20020;-63
2023/04/12 08:12:55;;;;;;;6.60;4.07;;;9.40;99.90;;;;;;5072606;28;20362;-63
2023/04/12 08:15:21;;;;;;;4.85;2.88;;;9.40;99.90;;;;;;5056280;28;20021;-63
2023/04/12 08:17:47;;;;;;;5.97;2.90;;;9.40;99.90;;;;;;5074166;28;20040;-63
2023/04/12 08:20:14;;;;;;;4.20;2.30;;;9.50;99.90;;;;;;5073756;28;20017;-63
2023/04/12 08:22:40;;;;;;;5.15;2.58;;;9.50;99.90;;;;;;5074630;28;20025;-63
2023/04/12 08:25:07;;;;;;;4.43;2.33;;;9.60;99.90;;;;;;5074410;28;20059;-63
2023/04/12 08:27:33;;;;;;;3.95;2.65;;;9.70;99.90;;;;;;5073868;28;20021;-63
2023/04/12 08:29:58;;;;;;;3.67;2.10;;;9.80;99.90;;;;;;5074783;28;20108;-64
2023/04/12 08:32:24;;;;;;;3.88;2.38;;;9.90;99.90;;;;;;5074424;28;20028;-63
2023/04/12 08:34:50;;;;;;;4.60;2.20;;;10.00;99.90;;;;;;5073686;28;20029;-64
2023/04/12 08:37:16;;;;;;;7.38;2.67;;;10.00;99.90;;;;;;5074169;28;20028;-63
2023/04/12 08:39:42;;;;;;;8.30;2.63;;;10.10;99.90;;;;;;5074246;28;20408;-64
2023/04/12 08:42:08;;;;;;;6.93;3.03;;;10.20;99.90;;;;;;5055700;28;20499;-62
2023/04/12 08:44:38;;;;;;;7.40;3.22;;;10.30;99.90;;;;;;5074280;28;20088;-63
2023/04/12 08:47:06;;;;;;;4.43;2.60;;;10.40;99.90;;;;;;5073925;28;20055;-62
2023/04/12 08:49:32;;;;;;;6.32;3.08;;;10.50;99.90;;;;;;5073451;28;20021;-63
2023/04/12 08:52:01;;;;;;;8.75;3.28;;;10.50;99.90;;;;;;5073842;28;20023;-63
2023/04/12 08:54:27;;;;;;;5.30;3.00;;;10.60;99.90;;;;;;5055222;28;20039;-62
2023/04/12 08:56:57;;;;;;;9.27;3.13;;;10.70;99.90;;;;;;5073986;28;20433;-62
2023/04/12 08:59:27;;;;;;;8.48;2.47;;;10.70;99.90;;;;;;5073605;28;20519;-62
2023/04/12 09:01:54;;;;;;;6.45;2.40;;;10.80;99.90;;;;;;5055219;28;20127;-63
2023/04/12 09:04:20;;;;;;;5.68;2.80;;;10.80;99.90;;;;;;5073703;28;20020;-63
2023/04/12 09:06:45;;;;;;;4.22;2.28;;;10.80;99.90;;;;;;5073953;28;20540;-63
2023/04/12 09:09:11;;;;;;;5.57;2.80;;;10.90;99.90;;;;;;5072916;28;20507;-64
2023/04/12 09:11:37;;;;;;;6.03;2.92;;;11.00;99.90;;;;;;5073615;28;20036;-63
2023/04/12 09:14:03;;;;;;;6.85;3.25;;;11.00;99.90;;;;;;5055475;28;20023;-63
2023/04/12 09:16:39;;;;;;;7.43;3.10;;;11.00;99.90;;;;;;5073142;28;20112;-63
2023/04/12 09:19:05;;;;;;;6.72;3.20;;;11.00;99.90;;;;;;5073319;28;20075;-63
2023/04/12 09:21:35;;;;;;;7.75;3.22;;;11.10;99.90;;;;;;5055566;28;20058;-63
2023/04/12 09:24:08;;;;;;;8.90;3.60;;;11.20;99.90;;;;;;5072900;28;20024;-63
2023/04/12 09:26:34;;;;;;;7.55;3.08;;;11.30;99.90;;;;;;5073437;28;20500;-62
2023/04/12 09:29:00;;;;;;;8.32;3.03;;;11.40;99.90;;;;;;5073383;28;20103;-63
2023/04/12 09:31:26;;;;;;;6.97;2.63;;;11.40;99.90;;;;;;5072752;28;20046;-63
2023/04/12 09:34:04;;;;;;;7.68;2.53;;;11.40;99.90;;;;;;5073558;28;20104;-62
2023/04/12 09:36:37;;;;;;;7.25;2.60;;;11.40;99.90;;;;;;5073268;28;20099;-63
2023/04/12 09:39:04;;;;;;;5.28;2.22;;;11.30;99.90;;;;;;5073068;28;20477;-62
2023/04/12 09:41:30;;;;;;;12.23;2.53;;;11.30;99.90;;;;;;5054909;28;20059;-63
2023/04/12 09:44:00;;;;;;;4.07;1.67;;;11.30;99.90;;;;;;5072659;28;20115;-63
2023/04/12 09:46:26;;;;;;;9.20;2.42;;;11.40;99.90;;;;;;5073211;28;20025;-63
2023/04/12 09:49:01;;;;;;;6.00;2.28;;;11.50;99.90;;;;;;5072506;28;20531;-64
2023/04/12 09:51:31;;;;;;;10.85;2.83;;;11.70;99.90;;;;;;5072482;28;20033;-63
2023/04/12 09:54:05;;;;;;;7.85;2.10;;;11.90;99.90;;;;;;5072884;28;20028;-63
2023/04/12 09:56:34;;;;;;;8.55;3.10;;;12.00;99.90;;;;;;5055174;28;20020;-63
2023/04/12 09:59:05;;;;;;;9.43;2.90;;;12.00;99.90;;;;;;5072593;28;20032;-63
2023/04/12 10:01:37;;;;;;;9.82;2.80;;;12.00;99.90;;;;;;5072955;28;20115;-63
2023/04/12 10:04:05;;;;;;;7.93;1.88;;;12.00;99.90;;;;;;5072991;28;20108;-63
2023/04/12 10:06:32;;;;;;;13.82;2.72;;;12.20;99.90;;;;;;5072367;28;20021;-63
2023/04/12 10:09:03;;;;;;;8.20;2.60;;;12.40;99.90;;;;;;5072808;28;20032;-63
2023/04/12 10:11:28;;;;;;;10.93;2.20;;;12.70;99.90;;;;;;5073222;28;20013;-63
2023/04/12 10:13:55;;;;;;;7.00;2.10;;;12.80;99.90;;;;;;5072553;28;20086;-63
2023/04/12 10:16:21;;;;;;;8.38;2.03;;;13.00;99.90;;;;;;5073067;28;20028;-63
2023/04/12 10:18:48;;;;;;;8.70;2.35;;;13.10;99.90;;;;;;5072299;28;20381;-63
2023/04/12 10:21:15;;;;;;;6.45;2.70;;;13.20;99.90;;;;;;5054958;28;20040;-63
2023/04/12 10:23:43;;;;;;;9.35;2.58;;;13.40;99.90;;;;;;5072953;28;20024;-63
2023/04/12 10:26:09;;;;;;;6.82;2.47;;;13.60;99.90;;;;;;5072081;28;20480;-63
2023/04/12 10:28:35;;;;;;;5.72;2.30;;;13.70;99.90;;;;;;5072755;28;20158;-63
2023/04/12 10:31:29;;;;;;;8.07;2.63;;;13.70;99.90;;;;;;5072912;28;20035;-63
2023/04/12 10:33:54;;;;;;;6.22;2.65;;;13.70;99.90;;;;;;5072329;28;20329;-63
2023/04/12 10:36:55;;;;;;;8.70;2.65;;;13.60;99.90;;;;;;5072768;28;20135;-63
2023/04/12 10:39:37;;;;;;;6.03;2.25;;;13.60;99.90;;;;;;5054623;28;20377;-63
2023/04/12 10:42:17;;;;;;;10.40;2.65;;;13.70;99.90;;;;;;5054094;28;20033;-62
2023/04/12 10:44:43;;;;;;;8.60;2.67;;;13.70;99.90;;;;;;5072558;28;20032;-63
2023/04/12 10:47:10;;;;;;;7.25;3.30;;;13.80;99.90;;;;;;5071807;28;20044;-62
2023/04/12 10:49:36;;;;;;;10.73;3.17;;;13.90;99.90;;;;;;5072567;28;20025;-63
2023/04/12 10:52:07;;;;;;;8.98;2.60;;;13.90;99.90;;;;;;5072759;28;20017;-62
2023/04/12 10:54:34;;;;;;;8.98;2.70;;;13.90;99.90;;;;;;5071886;28;20528;-63
2023/04/12 10:57:01;;;;;;;9.73;2.67;;;14.00;99.90;;;;;;5072553;28;20016;-63
2023/04/12 10:59:53;;;;;;;7.40;2.30;;;14.00;99.90;;;;;;5072468;28;20016;-62
2023/04/12 11:02:18;;;;;;;11.63;2.50;;;14.10;99.90;;;;;;5075295;28;20036;-63
2023/04/12 11:05:10;;;;;;;9.82;2.35;;;14.20;99.90;;;;;;5076032;28;20518;-62
2023/04/12 11:07:40;;;;;;;12.00;2.28;;;14.40;99.90;;;;;;5075897;28;20050;-63
2023/04/12 11:10:18;;;;;;;10.30;2.67;;;14.50;99.90;;;;;;5075946;28;20020;-62
2023/04/12 11:12:56;;;;;;;9.88;3.10;;;14.40;99.90;;;;;;5075951;28;20082;-63
2023/04/12 11:15:25;;;;;;;11.43;3.15;;;14.40;99.90;;;;;;5075338;28;20302;-63
2023/04/12 11:17:55;;;;;;;9.57;2.63;;;14.30;99.90;;;;;;5057683;28;20385;-63
2023/04/12 11:20:21;;;;;;;6.87;2.20;;;14.00;99.90;;;;;;5075873;28;20039;-63
2023/04/12 11:22:48;;;;;;;11.27;2.53;;;13.70;99.90;;;;;;5075052;28;20685;-63
2023/04/12 11:25:19;;;;;;;12.27;2.13;;;13.50;99.90;;;;;;5075679;28;20012;-63
2023/04/12 11:27:53;;;;;;;9.70;2.40;;;13.30;99.90;;;;;;5075583;28;20028;-63
2023/04/12 11:30:19;;;;;;;10.95;2.15;;;13.00;99.90;;;;;;5075132;28;20021;-63
2023/04/12 11:32:46;;;;;;;8.75;2.13;;;12.80;99.90;;;;;;5075451;28;20417;-63
2023/04/12 11:35:14;;;;;;;10.73;2.45;;;12.50;99.90;;;;;;5057523;28;20137;-63
2023/04/12 11:37:40;;;;;;;9.55;2.28;;;12.00;99.90;;;;;;5074749;28;20471;-63
2023/04/12 11:40:08;;;;;;;4.18;1.70;;;11.70;99.90;;;;;;5075108;28;20595;-63
2023/04/12 11:42:34;;;;;;;8.80;1.85;;;11.40;99.90;;;;;;5075351;28;20032;-63
2023/04/12 11:45:00;;;;;;;7.53;2.10;;;11.30;99.90;;;;;;5056685;28;20028;-62
2023/04/12 11:47:26;;;;;;;9.10;2.22;;;11.30;99.90;;;;;;5075288;28;20032;-63
2023/04/12 11:49:56;;;;;;;6.85;1.90;;;11.40;99.90;;;;;;5074995;28;20107;-63
2023/04/12 11:52:28;;;;;;;7.32;2.20;;;11.60;99.90;;;;;;5074677;28;20020;-63
2023/04/12 11:54:57;;;;;;;6.28;2.10;;;11.90;99.90;;;;;;5075325;28;20023;-63
2023/04/12 11:57:23;;;;;;;10.57;2.00;;;12.20;99.90;;;;;;5074632;28;20031;-63
2023/04/12 11:59:49;;;;;;;9.32;2.22;;;12.40;99.90;;;;;;5074967;28;20023;-64
2023/04/12 12:02:16;;;;;;;7.80;2.58;;;12.60;99.90;;;;;;5056979;28;20389;-63
2023/04/12 12:04:46;;;;;;;10.10;2.60;;;12.60;99.90;;;;;;5056274;28;20111;-63
2023/04/12 12:07:13;;;;;;;8.80;2.15;;;12.70;99.90;;;;;;5057218;28;20023;-63
2023/04/12 12:09:40;;;;;;;10.80;2.40;;;12.80;99.90;;;;;;5074904;28;20021;-63
2023/04/12 12:12:07;;;;;;;9.55;1.90;;;13.00;99.90;;;;;;5073399;28;20412;-64
2023/04/12 12:14:35;;;;;;;8.98;2.70;;;13.10;99.90;;;;;;5074714;28;20032;-63
2023/04/12 12:17:01;;;;;;;11.93;2.40;;;13.30;99.90;;;;;;5074552;28;20021;-63
2023/04/12 12:19:31;;;;;;;6.80;1.88;;;13.40;99.90;;;;;;5073580;28;20025;-63
2023/04/12 12:22:13;;;;;;;9.20;3.00;;;13.50;99.90;;;;;;5043959;28;20053;-62
2023/04/12 12:24:49;;;;;;;7.38;2.85;;;13.60;99.90;;;;;;5073274;28;20104;-63
2023/04/12 12:27:20;;;;;;;8.88;2.35;;;13.80;99.90;;;;;;5047417;28;20477;-63
2023/04/12 12:29:49;;;;;;;11.40;2.60;;;13.90;99.90;;;;;;5045256;28;20043;-63
2023/04/12 12:32:16;;;;;;;10.20;2.67;;;13.90;99.90;;;;;;5073290;28;20077;-63
2023/04/12 12:34:50;;;;;;;12.35;2.80;;;13.90;99.90;;;;;;5072449;28;20020;-64
2023/04/12 12:37:23;;;;;;;9.35;2.53;;;13.80;99.90;;;;;;5073154;28;20150;-63
2023/04/12 12:40:15;;;;;;;9.18;1.90;;;13.50;99.90;;;;;;5042834;28;20059;-62
2023/04/12 12:42:49;;;;;;;8.73;1.95;;;13.30;99.90;;;;;;5052699;28;20087;-62
2023/04/12 12:45:16;;;;;;;9.40;2.08;;;13.20;99.90;;;;;;5053275;28;20023;-62
2023/04/12 12:47:54;;;;;;;8.68;2.03;;;13.10;99.90;;;;;;5052074;28;20040;-63
2023/04/12 12:50:23;;;;;;;6.63;1.70;;;13.10;99.90;;;;;;5052518;28;20101;-62
2023/04/12 12:52:49;;;;;;;6.07;1.75;;;13.10;98.60;;;;;;5052934;28;20078;-62